createdAt,value
2018-06-21T00:00:44.983Z,100410.13
2018-06-21T00:03:13.615Z,100412.41
2018-06-21T00:05:42.226Z,100417.27
2018-06-21T00:08:10.760Z,100414.67
2018-06-21T00:10:39.541Z,100411.86
2018-06-21T00:13:08.281Z,100407.60
2018-06-21T00:15:36.953Z,100409.58
2018-06-21T00:18:05.937Z,100401.11
2018-06-21T00:20:34.680Z,100406.87
2018-06-21T00:23:03.366Z,100409.47
2018-06-21T00:25:32.060Z,100403.59
2018-06-21T00:28:00.775Z,100398.87
2018-06-21T00:30:29.303Z,100398.47
2018-06-21T00:32:57.952Z,100397.78
2018-06-21T00:35:26.527Z,100395.05
2018-06-21T00:37:55.067Z,100394.76
2018-06-21T00:40:23.697Z,100391.77
2018-06-21T00:42:52.420Z,100394.14
2018-06-21T00:45:20.957Z,100384.62
2018-06-21T00:47:49.536Z,100381.09
2018-06-21T00:50:18.393Z,100378.20
2018-06-21T00:52:46.940Z,100375.39
2018-06-21T00:55:22.795Z,100372.73
2018-06-21T00:57:51.345Z,100368.91
2018-06-21T01:00:19.886Z,100368.98
2018-06-21T01:02:48.478Z,100369.44
2018-06-21T01:05:17.050Z,100361.81
2018-06-21T01:07:45.705Z,100361.52
2018-06-21T01:10:14.242Z,100357.16
2018-06-21T01:12:42.847Z,100348.33
2018-06-21T01:15:11.529Z,100343.39
2018-06-21T01:17:40.250Z,100333.33
2018-06-21T01:20:08.915Z,100333.28
2018-06-21T01:22:37.520Z,100331.22
2018-06-21T01:25:06.264Z,100326.33
2018-06-21T01:27:34.823Z,100327.80
2018-06-21T01:30:03.464Z,100325.74
2018-06-21T01:32:32.133Z,100323.52
2018-06-21T01:35:00.796Z,100325.74
2018-06-21T01:37:29.363Z,100321.09
2018-06-21T01:39:58.025Z,100314.39
2018-06-21T01:42:29.545Z,100315.29
2018-06-21T01:44:58.287Z,100309.34
2018-06-21T01:47:26.914Z,100309.75
2018-06-21T01:49:55.576Z,100307.39
2018-06-21T01:52:24.179Z,100295.27
2018-06-21T01:54:52.866Z,100296.20
2018-06-21T01:57:21.531Z,100287.58
2018-06-21T01:59:50.139Z,100278.91
2018-06-21T02:02:18.821Z,100275.27
2018-06-21T02:04:47.418Z,100268.69
2018-06-21T02:07:15.963Z,100268.79
2018-06-21T02:09:44.598Z,100262.09
2018-06-21T02:12:13.260Z,100259.17
2018-06-21T02:14:41.879Z,100253.16
2018-06-21T02:17:10.658Z,100248.08
2018-06-21T02:19:39.291Z,100250.27
2018-06-21T02:22:07.873Z,100242.28
2018-06-21T02:24:36.440Z,100239.86
2018-06-21T02:27:05.234Z,100232.99
2018-06-21T02:29:33.818Z,100236.11
2018-06-21T02:32:02.404Z,100233.90
2018-06-21T02:34:30.982Z,100230.45
2018-06-21T02:36:59.660Z,100227.33
2018-06-21T02:39:28.318Z,100218.38
2018-06-21T02:41:56.904Z,100210.14
2018-06-21T02:44:25.497Z,100208.91
2018-06-21T02:46:54.277Z,100211.67
2018-06-21T02:49:22.964Z,100212.97
2018-06-21T02:51:51.519Z,100205.73
2018-06-21T02:54:20.204Z,100204.97
2018-06-21T02:56:48.916Z,100198.80
2018-06-21T02:59:17.467Z,100200.40
2018-06-21T03:01:46.089Z,100198.64
2018-06-21T03:04:14.695Z,100196.15
2018-06-21T03:06:43.382Z,100196.15
2018-06-21T03:09:11.979Z,100188.81
2018-06-21T03:11:40.525Z,100191.04
2018-06-21T03:14:09.164Z,100190.64
2018-06-21T03:16:37.737Z,100185.80
2018-06-21T03:19:06.337Z,100182.74
2018-06-21T03:21:34.942Z,100183.74
2018-06-21T03:24:03.548Z,100181.81
2018-06-21T03:26:32.090Z,100184.41
2018-06-21T03:29:00.678Z,100184.34
2018-06-21T03:31:29.242Z,100185.16
2018-06-21T03:33:57.950Z,100187.32
2018-06-21T03:36:26.547Z,100182.14
2018-06-21T03:38:55.132Z,100179.09
2018-06-21T03:41:23.666Z,100185.49
2018-06-21T03:43:52.296Z,100180.22
2018-06-21T03:46:20.852Z,100173.97
2018-06-21T03:48:49.375Z,100172.97
2018-06-21T03:51:17.959Z,100170.31
2018-06-21T03:53:46.594Z,100167.95
2018-06-21T03:56:15.086Z,100165.73
2018-06-21T03:58:43.788Z,100167.88
2018-06-21T04:01:12.397Z,100165.16
2018-06-21T04:03:41.024Z,100167.20
2018-06-21T04:06:09.640Z,100162.18
2018-06-21T04:08:38.188Z,100165.28
2018-06-21T04:11:06.734Z,100166.51
2018-06-21T04:13:35.382Z,100162.91
2018-06-21T04:16:03.921Z,100165.08
2018-06-21T04:18:46.868Z,100165.70
2018-06-21T04:21:15.441Z,100164.84
2018-06-21T04:23:43.934Z,100157.93
2018-06-21T04:26:12.687Z,100163.15
2018-06-21T04:28:41.408Z,100153.54
2018-06-21T04:31:10.082Z,100155.37
2018-06-21T04:33:38.655Z,100151.52
2018-06-21T04:36:07.213Z,100150.45
2018-06-21T04:38:37.728Z,100147.80
2018-06-21T04:41:06.544Z,100145.59
2018-06-21T04:43:35.112Z,100142.88
2018-06-21T04:46:03.922Z,100149.15
2018-06-21T04:48:32.544Z,100141.50
2018-06-21T04:51:01.273Z,100140.53
2018-06-21T04:53:29.845Z,100131.46
2018-06-21T04:55:58.562Z,100130.20
2018-06-21T04:58:27.170Z,100134.67
2018-06-21T05:00:55.768Z,100125.41
2018-06-21T05:03:24.347Z,100119.48
2018-06-21T05:05:52.947Z,100120.58
2018-06-21T05:08:21.632Z,100115.02
2018-06-21T05:10:50.599Z,100101.66
2018-06-21T05:13:19.192Z,100108.17
2018-06-21T05:15:47.950Z,100103.43
2018-06-21T05:18:16.526Z,100105.01
2018-06-21T05:20:45.074Z,100098.48
2018-06-21T05:23:13.707Z,100097.61
2018-06-21T05:25:42.417Z,100082.08
2018-06-21T05:28:11.001Z,100078.73
2018-06-21T05:30:39.555Z,100083.80
2018-06-21T05:33:08.437Z,100063.03
2018-06-21T05:35:36.979Z,100068.50
2018-06-21T05:38:05.555Z,100064.05
2018-06-21T05:40:36.440Z,100060.33
2018-06-21T05:43:05.520Z,100059.17
2018-06-21T05:45:34.751Z,100055.92
2018-06-21T05:48:04.252Z,100054.55
2018-06-21T05:50:33.780Z,100052.66
2018-06-21T05:53:02.643Z,100048.97
2018-06-21T05:55:32.438Z,100033.53
2018-06-21T05:58:01.650Z,100034.13
2018-06-21T06:00:44.915Z,100029.14
2018-06-21T06:03:13.553Z,100027.70
2018-06-21T06:05:42.194Z,100023.79
2018-06-21T06:08:10.844Z,100020.48
2018-06-21T06:10:39.374Z,100014.05
2018-06-21T06:13:07.957Z,100011.66
2018-06-21T06:15:36.533Z,100004.91
2018-06-21T06:18:05.160Z,100011.22
2018-06-21T06:20:33.698Z,100006.52
2018-06-21T06:23:02.293Z,99999.69
2018-06-21T06:25:30.833Z,100006.63
2018-06-21T06:27:59.375Z,99992.62
2018-06-21T06:30:27.937Z,99988.79
2018-06-21T06:32:56.486Z,99986.50
2018-06-21T06:35:28.429Z,99995.36
2018-06-21T06:37:57.312Z,99992.42
2018-06-21T06:40:25.902Z,99981.75
2018-06-21T06:42:54.354Z,99982.45
2018-06-21T06:45:22.929Z,99977.87
2018-06-21T06:47:51.663Z,99975.75
2018-06-21T06:50:20.288Z,99973.95
2018-06-21T06:52:48.913Z,99973.55
2018-06-21T06:55:17.411Z,99979.22
2018-06-21T06:57:45.942Z,99980.65
2018-06-21T07:00:14.431Z,99965.57
2018-06-21T07:02:43.298Z,99966.79
2018-06-21T07:05:11.812Z,99969.17
2018-06-21T07:07:40.344Z,99962.98
2018-06-21T07:10:08.911Z,99960.11
2018-06-21T07:12:37.581Z,99955.99
2018-06-21T07:15:06.623Z,99961.20
2018-06-21T07:17:35.260Z,99949.89
2018-06-21T07:20:03.863Z,99953.69
2018-06-21T07:22:32.394Z,99944.59
2018-06-21T07:25:00.995Z,99934.89
2018-06-21T07:27:29.496Z,99943.66
2018-06-21T07:29:58.029Z,99932.53
2018-06-21T07:32:26.640Z,99933.06
2018-06-21T07:34:55.266Z,99929.20
2018-06-21T07:37:23.916Z,99925.14
2018-06-21T07:39:52.568Z,99928.45
2018-06-21T07:42:21.192Z,99928.12
2018-06-21T07:44:49.824Z,99933.94
2018-06-21T07:47:18.441Z,99930.49
2018-06-21T07:49:46.932Z,99934.16
2018-06-21T07:52:15.493Z,99926.00
2018-06-21T07:54:44.043Z,99925.18
2018-06-21T07:57:12.602Z,99919.88
2018-06-21T07:59:41.133Z,99917.48
2018-06-21T08:02:09.803Z,99914.80
2018-06-21T08:04:38.321Z,99906.64
2018-06-21T08:07:07.046Z,99912.80
2018-06-21T08:09:35.685Z,99919.42
2018-06-21T08:12:04.264Z,99910.86
2018-06-21T08:14:32.912Z,99932.87
2018-06-21T08:17:01.489Z,99974.97
2018-06-21T08:19:30.132Z,99969.56
2018-06-21T08:21:58.723Z,99996.06
2018-06-21T08:24:27.265Z,99999.30
2018-06-21T08:26:55.804Z,100016.59
2018-06-21T08:29:24.376Z,100014.08
2018-06-21T08:31:52.959Z,100033.80
2018-06-21T08:34:21.561Z,100040.67
2018-06-21T08:36:50.124Z,100061.26
2018-06-21T08:39:18.778Z,100053.44
2018-06-21T08:41:47.313Z,100067.65
2018-06-21T08:44:15.914Z,100080.42
2018-06-21T08:46:44.562Z,100089.84
2018-06-21T08:49:13.178Z,100093.19
2018-06-21T08:51:41.838Z,100102.77
2018-06-21T08:54:10.389Z,100106.42
2018-06-21T08:56:39.147Z,100113.77
2018-06-21T08:59:07.841Z,100133.43
2018-06-21T09:01:36.466Z,100145.77
2018-06-21T09:04:05.284Z,100137.98
2018-06-21T09:06:33.873Z,100143.20
2018-06-21T09:09:02.398Z,100132.34
2018-06-21T09:11:30.917Z,100149.49
2018-06-21T09:13:59.404Z,100156.83
2018-06-21T09:16:27.964Z,100163.09
2018-06-21T09:18:56.861Z,100182.65
2018-06-21T09:21:25.381Z,100174.69
2018-06-21T09:23:53.879Z,100178.80
2018-06-21T09:26:22.423Z,100179.31
2018-06-21T09:28:51.037Z,100182.38
2018-06-21T09:31:19.611Z,100201.72
2018-06-21T09:33:48.156Z,100206.47
2018-06-21T09:36:16.751Z,100212.86
2018-06-21T09:40:57.328Z,100212.91
2018-06-21T09:43:30.975Z,100215.60
2018-06-21T09:46:04.732Z,100212.40
2018-06-21T09:48:33.746Z,100230.95
2018-06-21T09:51:02.381Z,100223.45
2018-06-21T09:53:31.194Z,100211.07
2018-06-21T09:56:00.674Z,100221.45
2018-06-21T09:58:29.398Z,100232.28
2018-06-21T10:01:01.820Z,100229.36
2018-06-21T10:03:30.661Z,100224.88
2018-06-21T10:05:59.371Z,100226.61
2018-06-21T10:08:28.211Z,100236.80
2018-06-21T10:10:56.885Z,100220.16
2018-06-21T10:13:25.488Z,100206.58
2018-06-21T10:15:54.283Z,100217.66
2018-06-21T10:18:22.876Z,100223.96
2018-06-21T10:20:51.561Z,100225.70
2018-06-21T10:23:20.130Z,100232.17
2018-06-21T10:25:48.722Z,100232.70
2018-06-21T10:28:17.455Z,100232.53
2018-06-21T10:30:46.085Z,100232.64
2018-06-21T10:33:14.690Z,100221.34
2018-06-21T10:35:43.229Z,100221.19
2018-06-21T10:38:11.828Z,100230.34
2018-06-21T10:40:40.428Z,100223.03
2018-06-21T10:43:09.103Z,100210.75
2018-06-21T10:45:37.696Z,100210.08
2018-06-21T10:48:06.269Z,100216.38
2018-06-21T10:50:34.857Z,100212.83
2018-06-21T10:53:03.376Z,100219.38
2018-06-21T10:55:32.007Z,100213.91
2018-06-21T10:58:00.503Z,100225.61
2018-06-21T11:00:29.134Z,100213.34
2018-06-21T11:02:57.786Z,100219.08
2018-06-21T11:05:26.467Z,100207.47
2018-06-21T11:07:54.962Z,100204.36
2018-06-21T11:10:23.574Z,100207.66
2018-06-21T11:12:52.078Z,100213.77
2018-06-21T11:15:20.591Z,100214.41
2018-06-21T11:17:49.199Z,100221.48
2018-06-21T11:20:17.838Z,100225.14
2018-06-21T11:22:46.376Z,100223.83
2018-06-21T11:25:15.034Z,100229.88
2018-06-21T11:27:43.851Z,100228.84
2018-06-21T11:30:12.528Z,100234.52
2018-06-21T11:32:41.055Z,100243.56
2018-06-21T11:35:09.787Z,100241.48
2018-06-21T11:37:38.594Z,100240.81
2018-06-21T11:40:07.151Z,100259.20
2018-06-21T11:42:35.765Z,100266.44
2018-06-21T11:45:04.390Z,100272.38
2018-06-21T11:47:32.872Z,100263.20
2018-06-21T11:50:01.390Z,100267.55
2018-06-21T11:52:29.956Z,100270.42
2018-06-21T11:54:58.491Z,100277.70
2018-06-21T11:57:27.053Z,100298.73
2018-06-21T11:59:55.665Z,100304.28
2018-06-21T12:02:24.275Z,100335.27
2018-06-21T12:04:52.902Z,100367.10
2018-06-21T12:07:21.538Z,100358.91
2018-06-21T12:09:50.167Z,100374.72
2018-06-21T12:12:18.779Z,100369.19
2018-06-21T12:14:47.399Z,100375.87
2018-06-21T12:17:16.004Z,100374.94
2018-06-21T12:19:44.568Z,100372.30
2018-06-21T12:22:13.128Z,100378.64
2018-06-21T12:24:41.773Z,100374.09
2018-06-21T12:27:10.328Z,100376.36
2018-06-21T12:29:38.913Z,100374.38
2018-06-21T12:32:07.507Z,100361.80
2018-06-21T12:34:36.215Z,100378.62
2018-06-21T12:37:04.893Z,100370.38
2018-06-21T12:39:33.810Z,100368.42
2018-06-21T12:42:02.507Z,100361.34
2018-06-21T12:44:31.169Z,100362.34
2018-06-21T12:46:59.684Z,100357.52
2018-06-21T12:49:28.349Z,100369.84
2018-06-21T12:51:57.149Z,100361.99
2018-06-21T12:54:25.950Z,100363.81
2018-06-21T12:56:54.561Z,100358.49
2018-06-21T12:59:23.149Z,100338.68
2018-06-21T13:01:51.764Z,100370.65
2018-06-21T13:04:20.322Z,100359.55
2018-06-21T13:06:48.798Z,100370.73
2018-06-21T13:11:30.193Z,100376.41
2018-06-21T13:14:09.804Z,100444.12
2018-06-21T13:16:38.439Z,100442.87
2018-06-21T13:19:06.961Z,100429.34
2018-06-21T13:21:35.501Z,100430.22
2018-06-21T13:24:04.133Z,100444.31
2018-06-21T13:26:32.699Z,100442.80
2018-06-21T13:29:01.193Z,100442.09
2018-06-21T13:31:29.769Z,100460.56
2018-06-21T13:33:58.382Z,100454.02
2018-06-21T13:36:26.889Z,100452.94
2018-06-21T13:38:55.508Z,100452.41
2018-06-21T13:41:24.124Z,100456.05
2018-06-21T13:43:52.644Z,100462.00
2018-06-21T13:46:21.162Z,100444.77
2018-06-21T13:48:49.626Z,100438.17
2018-06-21T13:51:18.268Z,100446.86
2018-06-21T13:53:46.837Z,100461.14
2018-06-21T13:56:15.401Z,100448.16
2018-06-21T13:58:43.862Z,100458.66
2018-06-21T14:01:12.429Z,100451.48
2018-06-21T14:03:40.979Z,100462.27
2018-06-21T14:06:09.791Z,100469.52
2018-06-21T14:08:38.552Z,100479.59
2018-06-21T14:11:07.009Z,100479.45
2018-06-21T14:13:35.591Z,100472.09
2018-06-21T14:16:06.220Z,100463.83
2018-06-21T14:18:37.174Z,100466.83
2018-06-21T14:21:07.810Z,100463.23
2018-06-21T14:23:36.687Z,100467.11
2018-06-21T14:26:05.268Z,100472.92
2018-06-21T14:28:33.869Z,100493.49
2018-06-21T14:31:02.554Z,100481.84
2018-06-21T14:33:31.216Z,100476.09
2018-06-21T14:35:59.838Z,100484.97
2018-06-21T14:38:28.508Z,100469.62
2018-06-21T14:40:57.062Z,100480.59
2018-06-21T14:43:25.814Z,100485.64
2018-06-21T14:45:54.470Z,100486.53
2018-06-21T14:48:23.288Z,100496.77
2018-06-21T14:50:52.081Z,100506.03
2018-06-21T14:53:20.753Z,100496.27
2018-06-21T14:55:49.436Z,100508.93
2018-06-21T14:58:18.180Z,100511.98
2018-06-21T15:00:46.719Z,100511.58
2018-06-21T15:03:15.414Z,100489.53
2018-06-21T15:05:43.975Z,100508.67
2018-06-21T15:08:12.649Z,100537.12
2018-06-21T15:10:41.349Z,100518.75
2018-06-21T15:13:10.094Z,100511.25
2018-06-21T15:15:38.774Z,100521.54
2018-06-21T15:18:07.389Z,100513.72
2018-06-21T15:20:36.082Z,100501.69
2018-06-21T15:23:04.889Z,100509.19
2018-06-21T15:25:33.515Z,100505.25
2018-06-21T15:28:02.168Z,100506.03
2018-06-21T15:30:31.025Z,100514.42
2018-06-21T15:32:59.739Z,100509.44
2018-06-21T15:35:28.468Z,100519.64
2018-06-21T15:37:57.046Z,100511.57
2018-06-21T15:40:25.676Z,100516.16
2018-06-21T15:42:54.380Z,100512.54
2018-06-21T15:45:23.064Z,100517.09
2018-06-21T15:47:51.628Z,100516.69
2018-06-21T15:50:20.191Z,100521.40
2018-06-21T15:52:48.926Z,100528.58
2018-06-21T15:55:17.585Z,100525.36
2018-06-21T15:57:48.189Z,100529.34
2018-06-21T16:00:16.877Z,100521.73
2018-06-21T16:02:45.389Z,100529.50
2018-06-21T16:05:13.906Z,100539.30
2018-06-21T16:07:42.621Z,100539.56
2018-06-21T16:10:12.879Z,100542.23
2018-06-21T16:12:41.733Z,100553.79
2018-06-21T16:15:10.341Z,100556.00
2018-06-21T16:17:42.247Z,100560.00
2018-06-21T16:20:14.903Z,100566.35
2018-06-21T16:22:46.530Z,100577.61
2018-06-21T16:25:16.993Z,100574.31
2018-06-21T16:27:56.976Z,100575.78
2018-06-21T16:30:25.590Z,100580.30
2018-06-21T16:32:54.184Z,100620.77
2018-06-21T16:35:23.410Z,100621.08
2018-06-21T16:37:52.158Z,100626.77
2018-06-21T16:40:21.388Z,100632.02
2018-06-21T16:42:49.987Z,100643.56
2018-06-21T16:45:19.094Z,100643.50
2018-06-21T16:47:47.864Z,100638.16
2018-06-21T16:50:16.540Z,100637.37
2018-06-21T16:52:45.395Z,100640.83
2018-06-21T16:55:14.133Z,100638.30
2018-06-21T16:57:42.982Z,100632.34
2018-06-21T17:00:11.678Z,100637.61
2018-06-21T17:02:40.272Z,100638.25
2018-06-21T17:05:09.488Z,100638.69
2018-06-21T17:07:38.555Z,100636.73
2018-06-21T17:10:07.550Z,100652.80
2018-06-21T17:12:37.460Z,100647.92
2018-06-21T17:15:06.698Z,100655.76
2018-06-21T17:17:35.886Z,100658.44
2018-06-21T17:20:05.242Z,100660.50
2018-06-21T17:22:35.520Z,100652.57
2018-06-21T17:25:05.337Z,100662.30
2018-06-21T17:27:46.601Z,100661.91
2018-06-21T17:30:15.742Z,100660.20
2018-06-21T17:32:44.976Z,100659.86
2018-06-21T17:35:15.049Z,100664.59
2018-06-21T17:37:44.100Z,100662.44
2018-06-21T17:40:12.817Z,100664.88
2018-06-21T17:42:41.467Z,100664.91
2018-06-21T17:45:10.195Z,100667.25
2018-06-21T17:47:39.253Z,100673.70
2018-06-21T17:50:08.390Z,100677.87
2018-06-21T17:52:37.029Z,100674.38
2018-06-21T17:55:06.269Z,100676.81
2018-06-21T17:57:35.190Z,100677.55
2018-06-21T18:00:04.411Z,100690.59
2018-06-21T18:02:32.975Z,100705.10
2018-06-21T18:05:01.933Z,100691.98
2018-06-21T18:07:30.904Z,100707.93
2018-06-21T18:09:59.711Z,100695.92
2018-06-21T18:12:28.458Z,100697.52
2018-06-21T18:14:57.397Z,100704.63
2018-06-21T18:17:25.994Z,100698.19
2018-06-21T18:19:54.576Z,100703.02
2018-06-21T18:22:23.208Z,100700.20
2018-06-21T18:24:52.016Z,100702.17
2018-06-21T18:27:21.012Z,100702.34
2018-06-21T18:29:50.066Z,100711.88
2018-06-21T18:32:19.001Z,100707.93
2018-06-21T18:34:47.579Z,100705.88
2018-06-21T18:37:16.322Z,100709.38
2018-06-21T18:39:45.394Z,100708.28
2018-06-21T18:42:14.078Z,100716.27
2018-06-21T18:44:42.580Z,100713.88
2018-06-21T18:47:11.118Z,100713.69
2018-06-21T18:49:39.638Z,100711.05
2018-06-21T18:52:08.695Z,100708.16
2018-06-21T18:54:37.441Z,100707.34
2018-06-21T18:57:06.340Z,100706.73
2018-06-21T18:59:35.296Z,100712.08
2018-06-21T19:02:04.149Z,100716.73
2018-06-21T19:04:33.225Z,100718.59
2018-06-21T19:07:09.595Z,100713.48
2018-06-21T19:09:43.348Z,100718.83
2018-06-21T19:12:14.054Z,100724.72
2018-06-21T19:14:42.804Z,100738.45
2018-06-21T19:17:11.660Z,100732.88
2018-06-21T19:19:40.584Z,100738.91
2018-06-21T19:22:09.490Z,100737.72
2018-06-21T19:24:39.245Z,100728.05
2018-06-21T19:27:08.753Z,100738.58
2018-06-21T19:29:41.292Z,100742.58
2018-06-21T19:32:10.139Z,100734.95
2018-06-21T19:34:43.896Z,100740.15
2018-06-21T19:37:15.602Z,100738.08
2018-06-21T19:39:51.714Z,100742.59
2018-06-21T19:42:20.288Z,100748.28
2018-06-21T19:44:49.343Z,100756.86
2018-06-21T19:47:18.213Z,100758.75
2018-06-21T19:49:47.342Z,100758.53
2018-06-21T19:52:16.565Z,100760.45
2018-06-21T19:54:45.420Z,100760.87
2018-06-21T19:57:14.125Z,100760.11
2018-06-21T19:59:42.903Z,100764.56
2018-06-21T20:02:11.557Z,100770.73
2018-06-21T20:04:40.308Z,100772.61
2018-06-21T20:07:09.444Z,100768.64
2018-06-21T20:09:38.021Z,100774.45
2018-06-21T20:12:06.762Z,100772.82
2018-06-21T20:14:36.071Z,100775.72
2018-06-21T20:17:04.758Z,100775.86
2018-06-21T20:20:38.631Z,100778.09
2018-06-21T20:23:07.345Z,100780.03
2018-06-21T20:25:35.879Z,100777.81
2018-06-21T20:28:04.552Z,100781.20
2018-06-21T20:30:36.314Z,100779.23
2018-06-21T20:33:05.585Z,100780.16
2018-06-21T20:35:34.242Z,100783.48
2018-06-21T20:38:02.883Z,100780.66
2018-06-21T20:40:31.578Z,100779.98
2018-06-21T20:43:00.266Z,100781.31
2018-06-21T20:45:28.906Z,100777.05
2018-06-21T20:47:57.578Z,100780.08
2018-06-21T20:50:26.322Z,100781.34
2018-06-21T20:52:56.443Z,100775.02
2018-06-21T20:55:25.169Z,100776.32
2018-06-21T20:57:54.675Z,100780.97
2018-06-21T21:00:23.567Z,100776.37
2018-06-21T21:02:52.674Z,100779.77
2018-06-21T21:05:21.660Z,100782.92
2018-06-21T21:07:51.104Z,100786.30
2018-06-21T21:10:20.279Z,100782.94
2018-06-21T21:12:48.962Z,100782.61
2018-06-21T21:15:17.639Z,100779.17
2018-06-21T21:17:46.308Z,100778.38
2018-06-21T21:20:15.115Z,100782.63
2018-06-21T21:22:44.912Z,100792.06
2018-06-21T21:25:13.430Z,100786.14
2018-06-21T21:27:41.983Z,100788.21
2018-06-21T21:30:10.693Z,100794.77
2018-06-21T21:32:39.402Z,100796.45
2018-06-21T21:35:08.037Z,100792.64
2018-06-21T21:37:36.629Z,100792.19
2018-06-21T21:40:06.638Z,100791.77
2018-06-21T21:42:36.358Z,100789.74
2018-06-21T21:45:05.102Z,100796.66
2018-06-21T21:47:34.030Z,100791.09
2018-06-21T21:50:03.183Z,100789.95
2018-06-21T21:52:31.864Z,100785.30
2018-06-21T21:55:00.436Z,100782.37
2018-06-21T21:57:29.157Z,100789.62
2018-06-21T21:59:57.777Z,100791.44
2018-06-21T22:02:26.274Z,100790.67
2018-06-21T22:04:54.882Z,100789.47
2018-06-21T22:07:23.978Z,100787.83
2018-06-21T22:09:52.649Z,100785.34
2018-06-21T22:12:21.320Z,100787.91
2018-06-21T22:14:50.336Z,100793.45
2018-06-21T22:17:19.155Z,100798.20
2018-06-21T22:19:47.730Z,100797.74
2018-06-21T22:22:16.306Z,100804.67
2018-06-21T22:24:46.205Z,100801.99
2018-06-21T22:27:14.757Z,100800.79
2018-06-21T22:29:43.634Z,100803.84
2018-06-21T22:32:13.105Z,100797.45
2018-06-21T22:34:43.013Z,100798.37
2018-06-21T22:37:11.634Z,100796.70
2018-06-21T22:39:40.488Z,100798.02
2018-06-21T22:42:09.174Z,100800.52
2018-06-21T22:44:37.741Z,100797.67
2018-06-21T22:47:06.541Z,100798.94
2018-06-21T22:49:35.126Z,100791.66
2018-06-21T22:52:04.015Z,100792.59
2018-06-21T22:54:32.590Z,100793.45
2018-06-21T22:57:01.290Z,100792.67
2018-06-21T22:59:29.857Z,100786.26
2018-06-21T23:01:58.846Z,100784.11
2018-06-21T23:04:27.909Z,100788.50
2018-06-21T23:06:56.794Z,100784.62
2018-06-21T23:09:25.474Z,100780.78
2018-06-21T23:11:54.014Z,100771.81
2018-06-21T23:14:22.691Z,100775.78
2018-06-21T23:16:54.441Z,100773.28
2018-06-21T23:19:30.698Z,100772.45
2018-06-21T23:22:00.215Z,100767.27
2018-06-21T23:24:28.858Z,100770.78
2018-06-21T23:26:57.820Z,100763.95
2018-06-21T23:29:26.435Z,100763.88
2018-06-21T23:31:55.140Z,100761.77
2018-06-21T23:34:23.887Z,100752.82
2018-06-21T23:36:52.465Z,100745.57
2018-06-21T23:39:20.997Z,100746.84
2018-06-21T23:41:49.538Z,100736.11
2018-06-21T23:44:18.014Z,100736.55
2018-06-21T23:46:46.589Z,100734.83
2018-06-21T23:49:15.175Z,100732.66
2018-06-21T23:51:43.688Z,100738.61
2018-06-21T23:54:13.527Z,100739.89
2018-06-21T23:56:43.460Z,100726.19
2018-06-21T23:59:12.002Z,100727.52
